Time;durP1;ratioP1;P1;durP2;ratioP2;P2;SDS_P1;SDS_P2;PMS_P1;PMS_P2;Temp;Humidity;BMP_temperature;BMP_pressure;BME280_temperature;BME280_humidity;BME280_pressure;Samples;Min_cycle;Max_cycle;Signal;HPM_P1;HPM_P2
2023/10/07 00:00:32;;;;;;;10.98;4.28;;;9.40;99.90;;;;;;4898042;29;20641;-61
2023/10/07 00:03:00;;;;;;;7.38;4.05;;;9.30;99.90;;;;;;4898645;29;20057;-62
2023/10/07 00:05:32;;;;;;;7.10;4.30;;;9.30;99.90;;;;;;4899294;29;20513;-62
2023/10/07 00:08:00;;;;;;;7.45;4.03;;;9.30;99.90;;;;;;4898786;29;20041;-62
2023/10/07 00:10:29;;;;;;;9.40;3.80;;;9.30;99.90;;;;;;4898714;29;20048;-62
2023/10/07 00:12:57;;;;;;;10.77;4.10;;;9.30;99.90;;;;;;4898427;29;20052;-62
2023/10/07 00:15:28;;;;;;;9.55;4.35;;;9.30;99.90;;;;;;4899102;29;20072;-62
2023/10/07 00:18:06;;;;;;;8.43;4.00;;;9.30;99.90;;;;;;4898656;29;20059;-62
2023/10/07 00:20:33;;;;;;;7.63;4.22;;;9.30;99.90;;;;;;4898413;29;20071;-62
2023/10/07 00:23:01;;;;;;;8.52;4.25;;;9.20;99.90;;;;;;4898639;29;20046;-63
2023/10/07 00:25:30;;;;;;;6.13;3.95;;;9.30;99.90;;;;;;4898924;29;20096;-62
2023/10/07 00:27:58;;;;;;;5.72;3.15;;;9.30;99.90;;;;;;4898679;29;20494;-62
2023/10/07 00:30:27;;;;;;;6.60;3.30;;;9.30;99.90;;;;;;4880885;29;20052;-62
2023/10/07 00:32:55;;;;;;;8.50;3.63;;;9.40;99.90;;;;;;4881573;29;20056;-62
2023/10/07 00:35:27;;;;;;;9.48;3.97;;;9.40;99.90;;;;;;4898769;29;20127;-62
2023/10/07 00:37:58;;;;;;;9.20;3.40;;;9.30;99.90;;;;;;4897931;29;20044;-62
2023/10/07 00:40:40;;;;;;;8.45;3.42;;;9.30;99.90;;;;;;4898347;29;20036;-61
2023/10/07 00:43:10;;;;;;;7.43;3.38;;;9.30;99.90;;;;;;4893520;29;20108;-63
2023/10/07 00:45:37;;;;;;;6.07;3.53;;;9.20;99.90;;;;;;4891220;29;20048;-62
2023/10/07 00:48:10;;;;;;;;;;;9.10;99.90;;;;;;4898079;29;20084;-62
2023/10/07 00:50:38;;;;;;;7.05;3.40;;;9.10;99.90;;;;;;4892541;29;20393;-61
2023/10/07 00:53:08;;;;;;;11.80;3.80;;;9.10;99.90;;;;;;4881528;29;20052;-62
2023/10/07 00:55:37;;;;;;;12.23;3.92;;;9.10;99.90;;;;;;4898012;29;20043;-62
2023/10/07 00:58:08;;;;;;;7.45;3.70;;;9.10;99.90;;;;;;4897973;29;20052;-62
2023/10/07 01:00:55;;;;;;;8.82;3.40;;;9.10;99.90;;;;;;4881247;29;20088;-62
2023/10/07 01:08:34;;;;;;;11.15;4.10;;;8.80;99.90;;;;;;4879804;29;20498;-62
2023/10/07 01:11:08;;;;;;;7.15;3.60;;;8.80;99.90;;;;;;4894180;29;20052;-62
2023/10/07 01:13:35;;;;;;;6.90;3.50;;;8.70;99.90;;;;;;4879900;29;20048;-62
2023/10/07 01:16:08;;;;;;;13.63;4.15;;;8.70;99.90;;;;;;4897718;29;20056;-62
2023/10/07 01:18:39;;;;;;;8.88;3.42;;;8.70;99.90;;;;;;4897371;29;20040;-62
2023/10/07 01:21:11;;;;;;;10.27;4.03;;;8.70;99.90;;;;;;4880719;29;20053;-62
2023/10/07 01:23:45;;;;;;;8.93;3.72;;;8.60;99.90;;;;;;4893745;29;20049;-62
2023/10/07 01:26:17;;;;;;;6.75;3.42;;;8.60;99.90;;;;;;4872762;29;20048;-62
2023/10/07 01:28:49;;;;;;;6.68;3.13;;;8.60;99.90;;;;;;4887282;29;20052;-63
2023/10/07 01:31:19;;;;;;;8.35;3.40;;;8.60;99.90;;;;;;4897186;29;20455;-62
2023/10/07 01:33:51;;;;;;;6.30;3.47;;;8.70;99.90;;;;;;4880325;29;20036;-62
2023/10/07 01:36:24;;;;;;;8.15;3.75;;;8.60;99.90;;;;;;4877463;29;20452;-62
2023/10/07 01:38:53;;;;;;;8.00;3.60;;;8.70;99.90;;;;;;4895184;29;20049;-61
2023/10/07 01:41:21;;;;;;;11.32;4.47;;;8.80;99.90;;;;;;4880710;29;20135;-62
2023/10/07 01:43:58;;;;;;;9.13;3.22;;;8.80;99.90;;;;;;4895512;29;20498;-62
2023/10/07 01:46:27;;;;;;;6.85;3.63;;;8.90;99.90;;;;;;4897612;29;20064;-62
2023/10/07 01:49:01;;;;;;;10.13;3.38;;;8.90;99.90;;;;;;4878708;29;20041;-62
2023/10/07 01:51:29;;;;;;;6.70;3.53;;;8.90;99.90;;;;;;4889118;29;20044;-62
2023/10/07 01:54:00;;;;;;;9.43;4.07;;;8.90;99.90;;;;;;4879484;29;20145;-62
2023/10/07 01:56:29;;;;;;;8.80;3.47;;;8.90;99.90;;;;;;4880468;29;20092;-62
2023/10/07 02:01:42;;;;;;;7.20;3.45;;;8.80;99.90;;;;;;4880154;29;20053;-62
2023/10/07 02:04:20;;;;;;;7.03;3.67;;;8.80;99.90;;;;;;4879214;29;20387;-62
2023/10/07 02:06:54;;;;;;;7.18;3.47;;;8.80;99.90;;;;;;4892198;29;20053;-62
2023/10/07 02:09:24;;;;;;;7.88;3.67;;;8.80;99.90;;;;;;4879977;29;20130;-62
2023/10/07 02:12:11;;;;;;;5.65;3.60;;;8.80;99.90;;;;;;4879873;29;20048;-62
2023/10/07 02:14:39;;;;;;;8.35;3.67;;;8.70;99.90;;;;;;4874295;29;20069;-62
2023/10/07 02:17:08;;;;;;;9.20;3.83;;;8.70;99.90;;;;;;4894490;29;20140;-62
2023/10/07 02:19:40;;;;;;;6.45;3.13;;;8.70;99.90;;;;;;4878418;29;20052;-62
2023/10/07 02:22:09;;;;;;;8.70;3.55;;;8.70;99.90;;;;;;4880167;29;20083;-62
2023/10/07 02:24:40;;;;;;;7.90;3.80;;;8.70;99.90;;;;;;4879768;29;20037;-62
2023/10/07 02:27:18;;;;;;;5.85;3.50;;;8.70;99.90;;;;;;4897013;29;20131;-62
2023/10/07 02:29:51;;;;;;;7.70;3.42;;;8.60;99.90;;;;;;4896695;29;20068;-62
2023/10/07 02:32:17;;;;;;;12.85;4.05;;;8.60;99.90;;;;;;4895960;29;20043;-62
2023/10/07 02:34:51;;;;;;;10.07;3.30;;;8.50;99.90;;;;;;4896022;29;20043;-63
2023/10/07 02:37:21;;;;;;;6.82;3.63;;;8.50;99.90;;;;;;4889549;29;20533;-62
2023/10/07 02:39:50;;;;;;;10.10;3.78;;;8.40;99.90;;;;;;4896610;29;20036;-62
2023/10/07 02:42:28;;;;;;;7.43;3.40;;;8.40;99.90;;;;;;4875073;29;20064;-62
2023/10/07 02:47:54;;;;;;;7.50;3.17;;;8.30;99.90;;;;;;4879828;29;20093;-62
2023/10/07 02:50:25;;;;;;;9.32;3.33;;;8.20;99.90;;;;;;4894972;29;20124;-62
2023/10/07 02:52:54;;;;;;;9.25;3.40;;;8.20;99.90;;;;;;4891032;29;20048;-62
2023/10/07 02:57:55;;;;;;;6.88;3.33;;;8.20;99.90;;;;;;4878988;29;20052;-60
2023/10/07 03:00:37;;;;;;;11.48;3.72;;;8.20;99.90;;;;;;4872248;29;20044;-62
2023/10/07 03:06:00;;;;;;;7.88;3.42;;;8.20;99.90;;;;;;4895469;29;20053;-63
2023/10/07 03:08:40;;;;;;;8.15;3.80;;;8.30;99.90;;;;;;4884455;29;20105;-63
2023/10/07 03:11:11;;;;;;;6.75;3.00;;;8.20;99.90;;;;;;4893683;29;20078;-63
2023/10/07 03:13:49;;;;;;;7.32;3.53;;;8.20;99.90;;;;;;4891227;29;20041;-61
2023/10/07 03:18:56;;;;;;;8.05;3.80;;;8.10;99.90;;;;;;4879468;29;20068;-62
2023/10/07 03:21:54;;;;;;;5.78;3.10;;;8.00;99.90;;;;;;4878161;29;20100;-63
2023/10/07 03:24:11;;;;;;;7.63;3.35;;;8.00;99.90;;;;;;4879420;29;20072;-63
2023/10/07 03:26:46;;;;;;;6.55;3.00;;;8.00;99.90;;;;;;4896035;29;20048;-62
2023/10/07 03:29:30;;;;;;;7.78;3.25;;;8.00;99.90;;;;;;4895507;29;20405;-63
2023/10/07 03:31:59;;;;;;;8.15;3.60;;;8.00;99.90;;;;;;4896578;29;20051;-63
2023/10/07 03:34:27;;;;;;;8.15;3.50;;;8.00;99.90;;;;;;4888612;29;20129;-62
2023/10/07 03:37:42;;;;;;;8.32;3.22;;;7.90;99.90;;;;;;4895692;29;20044;-63
2023/10/07 03:40:04;;;;;;;6.32;2.92;;;8.00;99.90;;;;;;4895456;29;20691;-63
2023/10/07 03:42:33;;;;;;;7.20;3.70;;;7.90;99.90;;;;;;4895805;29;20077;-63
2023/10/07 03:45:00;;;;;;;9.70;3.80;;;7.80;99.90;;;;;;4896149;29;20043;-63
2023/10/07 03:47:32;;;;;;;10.43;4.10;;;7.90;99.90;;;;;;4895833;29;20040;-63
2023/10/07 03:49:59;;;;;;;7.60;3.70;;;7.90;99.90;;;;;;4889882;29;20045;-62
2023/10/07 03:52:28;;;;;;;9.23;4.13;;;7.90;99.90;;;;;;4890051;29;20045;-63
2023/10/07 03:54:57;;;;;;;8.85;4.45;;;7.90;99.90;;;;;;4895987;29;20036;-63
2023/10/07 03:57:24;;;;;;;8.10;4.20;;;7.90;99.90;;;;;;4895684;29;20052;-63
2023/10/07 03:59:53;;;;;;;7.82;4.50;;;7.90;99.90;;;;;;4894165;29;20060;-63
2023/10/07 04:05:10;;;;;;;9.55;4.47;;;7.90;99.90;;;;;;4897406;29;20435;-63
2023/10/07 04:07:38;;;;;;;10.80;4.63;;;8.00;99.90;;;;;;4899505;29;20546;-63
2023/10/07 04:10:21;;;;;;;8.23;3.67;;;7.90;99.90;;;;;;4898003;29;20123;-63
2023/10/07 04:12:49;;;;;;;8.50;3.80;;;7.80;99.90;;;;;;4899108;29;20123;-63
2023/10/07 04:15:18;;;;;;;9.80;4.35;;;7.80;99.90;;;;;;4898142;29;20072;-63
2023/10/07 04:17:46;;;;;;;8.13;3.55;;;7.90;99.90;;;;;;4899310;29;20045;-63
2023/10/07 04:20:19;;;;;;;7.88;3.30;;;7.80;99.90;;;;;;4898826;29;20052;-63
2023/10/07 04:23:00;;;;;;;10.43;3.63;;;7.80;99.90;;;;;;4898990;29;20037;-63
2023/10/07 04:25:29;;;;;;;6.90;3.55;;;7.80;99.90;;;;;;4891981;29;20122;-63
2023/10/07 04:27:57;;;;;;;6.30;3.33;;;7.80;99.90;;;;;;4898413;29;20049;-63
2023/10/07 04:30:38;;;;;;;9.00;3.55;;;7.80;99.90;;;;;;4898715;29;20059;-63
2023/10/07 04:33:08;;;;;;;6.45;3.28;;;7.90;99.90;;;;;;4897785;29;20502;-63
2023/10/07 04:35:37;;;;;;;7.80;3.45;;;7.90;99.90;;;;;;4899075;29;20048;-63
2023/10/07 04:41:32;;;;;;;7.38;3.38;;;7.80;99.90;;;;;;4898775;29;20044;-63
2023/10/07 04:43:59;;;;;;;7.68;3.58;;;7.80;99.90;;;;;;4887560;29;20084;-63
2023/10/07 04:46:29;;;;;;;4.72;2.58;;;7.70;99.90;;;;;;4898785;29;20490;-63
2023/10/07 04:48:59;;;;;;;6.13;3.00;;;7.60;99.90;;;;;;4898527;29;20032;-62
2023/10/07 04:54:02;;;;;;;9.60;3.17;;;7.40;99.90;;;;;;4898262;29;20052;-63
2023/10/07 04:56:33;;;;;;;10.40;3.55;;;7.40;99.90;;;;;;4890503;29;20039;-63
2023/10/07 04:59:00;;;;;;;5.80;2.90;;;7.50;99.90;;;;;;4898596;29;20045;-63
2023/10/07 05:01:33;;;;;;;8.00;3.38;;;7.40;99.90;;;;;;4897271;29;20068;-63
2023/10/07 05:04:05;;;;;;;9.60;3.38;;;7.50;99.90;;;;;;4894864;29;20041;-63
2023/10/07 05:06:35;;;;;;;9.88;3.75;;;7.50;99.90;;;;;;4891069;29;20498;-63
2023/10/07 05:09:09;;;;;;;8.55;3.38;;;7.50;99.90;;;;;;4898396;29;20048;-63
2023/10/07 05:11:40;;;;;;;8.98;3.83;;;7.50;99.90;;;;;;4898125;29;20400;-63
2023/10/07 05:14:07;;;;;;;7.80;3.20;;;7.50;99.90;;;;;;4897302;29;20100;-64
2023/10/07 05:16:39;;;;;;;9.55;3.00;;;7.50;99.90;;;;;;4896064;29;20056;-64
2023/10/07 05:19:09;;;;;;;6.68;3.33;;;7.50;99.90;;;;;;4893474;29;20160;-64
2023/10/07 05:21:40;;;;;;;8.52;3.83;;;7.50;99.90;;;;;;4897058;29;20132;-64
2023/10/07 05:24:11;;;;;;;12.38;3.47;;;7.50;99.90;;;;;;4890110;29;20157;-62
2023/10/07 05:26:41;;;;;;;6.50;2.83;;;7.50;99.90;;;;;;4897493;29;20048;-62
2023/10/07 05:29:12;;;;;;;5.88;3.22;;;7.50;99.90;;;;;;4892616;29;20044;-62
2023/10/07 05:31:40;;;;;;;9.63;3.60;;;7.50;99.90;;;;;;4897391;29;20045;-62
2023/10/07 05:34:08;;;;;;;10.70;4.95;;;7.50;99.90;;;;;;4888551;29;20898;-62
2023/10/07 05:36:37;;;;;;;8.93;5.10;;;7.50;99.90;;;;;;4897739;29;20045;-62
2023/10/07 05:39:07;;;;;;;8.52;4.05;;;7.50;99.90;;;;;;4896895;29;20143;-64
2023/10/07 05:41:39;;;;;;;7.45;4.10;;;7.40;99.90;;;;;;4897300;29;20585;-64
2023/10/07 05:44:07;;;;;;;8.68;3.63;;;7.50;99.90;;;;;;4892613;29;20112;-64
2023/10/07 05:46:35;;;;;;;8.30;3.63;;;7.50;99.90;;;;;;4889650;29;20131;-64
2023/10/07 05:49:02;;;;;;;8.85;4.25;;;7.50;99.90;;;;;;4894223;29;20447;-62
2023/10/07 05:51:29;;;;;;;;;;;7.60;99.90;;;;;;4894739;29;20507;-63
2023/10/07 05:53:56;;;;;;;9.05;3.88;;;7.50;99.90;;;;;;4896773;29;19954;-63
2023/10/07 05:56:22;;;;;;;11.88;4.90;;;7.50;99.90;;;;;;4895093;29;20049;-62
2023/10/07 05:58:52;;;;;;;9.93;5.00;;;7.50;99.90;;;;;;4896891;29;20040;-61
2023/10/07 06:01:18;;;;;;;9.95;4.65;;;7.50;99.90;;;;;;4897080;29;20045;-62
2023/10/07 06:03:46;;;;;;;11.32;4.90;;;7.60;99.90;;;;;;4892515;29;20058;-62
2023/10/07 06:06:14;;;;;;;7.22;4.53;;;7.60;99.90;;;;;;4892956;29;20045;-62
2023/10/07 06:08:41;;;;;;;7.90;3.85;;;7.50;99.90;;;;;;4896305;29;20045;-62
2023/10/07 06:11:11;;;;;;;8.90;4.20;;;7.50;99.90;;;;;;4896833;29;20041;-62
2023/10/07 06:13:40;;;;;;;11.77;5.25;;;7.50;99.90;;;;;;4895202;29;20037;-62
2023/10/07 06:16:08;;;;;;;14.30;6.03;;;7.40;99.90;;;;;;4896842;29;20067;-62
2023/10/07 06:18:35;;;;;;;12.25;6.20;;;7.40;99.90;;;;;;4895796;29;20054;-62
2023/10/07 06:21:19;;;;;;;15.18;7.45;;;7.50;99.90;;;;;;4896878;29;20465;-62
2023/10/07 06:23:53;;;;;;;18.17;7.63;;;7.60;99.90;;;;;;4890800;29;20391;-62
2023/10/07 06:26:20;;;;;;;11.80;6.55;;;7.60;99.90;;;;;;4896719;29;20079;-63
2023/10/07 06:28:49;;;;;;;13.10;6.60;;;7.70;99.90;;;;;;4896600;29;20045;-62
2023/10/07 06:31:22;;;;;;;13.52;6.50;;;7.70;99.90;;;;;;4890610;29;20414;-62
2023/10/07 06:34:00;;;;;;;20.45;6.68;;;7.70;99.90;;;;;;4896875;29;20049;-62
2023/10/07 06:36:30;;;;;;;11.05;6.30;;;7.80;99.90;;;;;;4895891;29;20123;-63
2023/10/07 06:39:10;;;;;;;16.00;6.22;;;7.80;99.90;;;;;;4896700;29;20066;-62
2023/10/07 06:41:38;;;;;;;5.28;2.90;;;7.90;99.90;;;;;;4895411;29;20040;-64
2023/10/07 06:44:11;;;;;;;6.72;2.80;;;8.00;99.90;;;;;;4896620;29;20072;-62
2023/10/07 06:46:41;;;;;;;13.73;3.97;;;7.80;99.90;;;;;;4888728;29;20041;-62
2023/10/07 06:49:17;;;;;;;9.52;4.35;;;7.70;99.90;;;;;;4895417;29;20107;-62
2023/10/07 06:51:45;;;;;;;10.70;5.57;;;7.70;99.90;;;;;;4889791;29;20055;-62
2023/10/07 06:54:14;;;;;;;14.88;6.22;;;7.80;99.90;;;;;;4895277;29;20119;-62
2023/10/07 06:56:40;;;;;;;9.45;5.32;;;8.20;99.90;;;;;;4888794;29;20117;-64
2023/10/07 06:59:10;;;;;;;11.90;5.78;;;8.50;99.90;;;;;;4895842;29;20051;-62
2023/10/07 07:04:11;;;;;;;10.02;4.20;;;8.90;99.90;;;;;;4895499;29;20409;-62
2023/10/07 07:06:43;;;;;;;8.20;3.42;;;8.90;99.90;;;;;;4896192;29;20112;-62
2023/10/07 07:12:12;;;;;;;11.07;4.65;;;8.80;99.90;;;;;;4891348;29;20041;-62
2023/10/07 07:14:50;;;;;;;11.95;5.90;;;8.90;99.90;;;;;;4895967;29;20045;-62
2023/10/07 07:17:30;;;;;;;15.07;7.60;;;9.00;99.90;;;;;;4894027;29;20040;-63
2023/10/07 07:22:44;;;;;;;11.88;6.50;;;9.50;99.90;;;;;;4903400;29;20052;-63
2023/10/07 07:25:39;;;;;;;11.38;6.40;;;9.80;99.90;;;;;;4901173;29;20123;-63
2023/10/07 07:28:05;;;;;;;13.55;5.80;;;10.00;99.90;;;;;;4902539;29;20053;-61
2023/10/07 07:30:32;;;;;;;11.50;6.07;;;10.10;99.90;;;;;;4900742;29;20517;-62
2023/10/07 07:33:12;;;;;;;10.90;5.75;;;10.30;99.90;;;;;;4897160;29;20041;-63
2023/10/07 07:35:43;;;;;;;12.95;6.05;;;10.40;99.90;;;;;;4888935;29;20044;-63
2023/10/07 07:38:30;;;;;;;10.55;6.45;;;10.60;99.90;;;;;;4896306;29;20387;-63
2023/10/07 07:43:47;;;;;;;11.65;6.18;;;10.80;99.90;;;;;;4892747;29;20498;-63
2023/10/07 07:46:26;;;;;;;9.68;5.60;;;10.90;99.90;;;;;;4904429;29;20076;-62
2023/10/07 07:48:54;;;;;;;13.48;5.53;;;11.00;99.90;;;;;;4904301;29;20727;-63
2023/10/07 07:51:24;;;;;;;;;;;11.20;99.90;;;;;;4899101;29;20139;-63
2023/10/07 07:53:52;;;;;;;13.82;5.53;;;11.20;99.90;;;;;;4899829;29;20011;-62
2023/10/07 07:56:20;;;;;;;13.07;6.22;;;11.40;99.90;;;;;;4897187;29;20037;-62
2023/10/07 07:58:50;;;;;;;10.75;6.43;;;11.50;99.90;;;;;;4891896;29;20052;-62
2023/10/07 08:01:21;;;;;;;12.00;6.43;;;11.60;99.90;;;;;;4902328;29;20040;-62
2023/10/07 08:03:48;;;;;;;9.73;5.47;;;11.80;99.90;;;;;;4892364;29;20119;-63
2023/10/07 08:06:21;;;;;;;;;;;11.90;99.90;;;;;;4907651;29;20123;-63
2023/10/07 08:08:49;;;;;;;10.77;5.72;;;12.00;99.90;;;;;;4908658;29;19970;-63
2023/10/07 08:11:19;;;;;;;10.70;5.97;;;12.10;99.90;;;;;;4906602;29;20132;-63
2023/10/07 08:13:46;;;;;;;10.98;5.28;;;12.20;99.90;;;;;;4908605;29;20051;-63
2023/10/07 08:16:18;;;;;;;11.18;6.10;;;12.20;99.90;;;;;;4904574;29;20045;-63
2023/10/07 08:18:48;;;;;;;9.88;5.45;;;12.20;99.90;;;;;;4911210;29;20040;-63
2023/10/07 08:21:16;;;;;;;11.25;5.78;;;12.40;99.90;;;;;;4909639;29;20605;-62
2023/10/07 08:23:44;;;;;;;10.02;5.40;;;12.50;99.90;;;;;;4911677;29;20098;-63
2023/10/07 08:26:12;;;;;;;11.38;5.85;;;12.50;99.90;;;;;;4905138;29;20043;-62
2023/10/07 08:28:42;;;;;;;10.90;5.60;;;12.50;99.90;;;;;;4911690;29;20103;-63
2023/10/07 08:31:16;;;;;;;10.07;5.82;;;12.50;99.90;;;;;;4908564;29;20050;-63
2023/10/07 08:33:53;;;;;;;10.88;5.68;;;12.60;99.90;;;;;;4911395;29;20076;-63
2023/10/07 08:36:28;;;;;;;10.48;5.80;;;12.80;99.90;;;;;;4905889;29;20045;-63
2023/10/07 08:38:59;;;;;;;11.68;5.43;;;12.80;99.90;;;;;;4910689;29;20131;-63
2023/10/07 08:41:27;;;;;;;7.82;4.88;;;13.00;99.90;;;;;;4908373;29;20048;-63
2023/10/07 08:44:04;;;;;;;11.85;5.45;;;13.00;99.90;;;;;;4909700;29;20120;-63
2023/10/07 08:46:33;;;;;;;10.38;5.38;;;13.20;99.90;;;;;;4901898;29;20521;-62
2023/10/07 08:49:05;;;;;;;9.35;4.72;;;13.30;99.90;;;;;;4904137;29;20040;-63
2023/10/07 08:51:39;;;;;;;10.30;5.47;;;13.40;99.90;;;;;;4900698;29;20134;-63
2023/10/07 08:54:17;;;;;;;10.85;5.22;;;13.50;99.90;;;;;;4903653;29;20056;-63
2023/10/07 08:56:54;;;;;;;11.60;5.05;;;13.60;99.90;;;;;;4900852;29;20037;-63
2023/10/07 08:59:26;;;;;;;13.63;5.57;;;13.70;99.90;;;;;;4904522;29;20055;-63
2023/10/07 09:01:57;;;;;;;9.27;4.55;;;13.80;99.90;;;;;;4900987;29;20506;-63
2023/10/07 09:04:25;;;;;;;12.20;5.10;;;13.80;99.90;;;;;;4906087;29;20044;-63
2023/10/07 09:06:52;;;;;;;10.38;5.22;;;14.00;99.90;;;;;;4902474;29;20413;-63
2023/10/07 09:09:38;;;;;;;14.43;5.18;;;14.10;99.90;;;;;;4887604;29;20055;-62
2023/10/07 09:12:30;;;;;;;10.45;5.10;;;14.30;99.90;;;;;;4903304;29;20058;-62
2023/10/07 09:14:58;;;;;;;7.60;4.57;;;14.40;99.90;;;;;;4902702;29;20059;-63
2023/10/07 09:17:27;;;;;;;8.20;5.00;;;14.50;99.90;;;;;;4903312;29;20558;-63
2023/10/07 09:19:58;;;;;;;9.82;4.82;;;14.50;99.90;;;;;;4901044;29;20049;-63
2023/10/07 09:22:34;;;;;;;11.35;5.78;;;14.60;99.90;;;;;;4901261;29;20112;-63
2023/10/07 09:25:17;;;;;;;9.88;5.03;;;14.70;99.90;;;;;;4901998;29;20533;-63
2023/10/07 09:27:54;;;;;;;9.25;5.00;;;14.90;99.90;;;;;;4901883;29;20051;-63
2023/10/07 09:30:37;;;;;;;9.88;4.75;;;14.90;99.90;;;;;;4902890;29;20123;-63
2023/10/07 09:33:17;;;;;;;12.00;5.45;;;14.90;99.90;;;;;;4902332;29;20044;-63
2023/10/07 09:36:15;;;;;;;10.13;5.15;;;14.90;99.90;;;;;;4902777;29;20111;-62
2023/10/07 09:38:41;;;;;;;8.00;5.05;;;15.00;99.90;;;;;;4898933;29;20044;-63
2023/10/07 09:41:24;;;;;;;10.18;5.50;;;15.10;99.90;;;;;;4893800;29;20104;-63
2023/10/07 09:43:51;;;;;;;12.73;5.30;;;15.20;99.90;;;;;;4897445;29;20104;-63
2023/10/07 09:46:24;;;;;;;8.32;4.68;;;15.30;99.90;;;;;;4897581;29;20048;-63
2023/10/07 09:49:05;;;;;;;10.95;5.78;;;15.30;99.90;;;;;;4889788;29;20147;-63
2023/10/07 09:51:44;;;;;;;10.57;6.03;;;15.40;99.90;;;;;;4894188;29;20071;-63
2023/10/07 09:54:36;;;;;;;7.45;4.30;;;15.60;99.90;;;;;;4897192;29;20055;-63
2023/10/07 09:57:24;;;;;;;10.52;4.97;;;15.80;99.90;;;;;;4893089;29;20121;-61
2023/10/07 10:00:37;;;;;;;;;;;16.10;99.90;;;;;;4896544;29;20059;-63
2023/10/07 10:03:18;;;;;;;8.85;4.38;;;16.20;99.90;;;;;;4896963;29;19927;-63
2023/10/07 10:06:19;;;;;;;7.47;3.92;;;16.40;99.90;;;;;;4896783;29;20044;-63
2023/10/07 10:08:57;;;;;;;8.38;4.57;;;16.40;99.90;;;;;;4875020;29;20143;-62
2023/10/07 10:11:44;;;;;;;8.73;4.68;;;16.50;99.90;;;;;;4896877;29;20051;-62
2023/10/07 10:14:16;;;;;;;11.40;4.45;;;16.50;99.90;;;;;;4893142;29;20059;-62
2023/10/07 10:16:48;;;;;;;10.60;4.88;;;16.50;99.90;;;;;;4891190;29;20553;-62
2023/10/07 10:19:44;;;;;;;9.23;4.47;;;16.60;99.90;;;;;;4890445;29;20064;-62
2023/10/07 10:22:12;;;;;;;11.35;4.97;;;16.50;99.90;;;;;;4896163;29;20100;-62
2023/10/07 10:24:44;;;;;;;6.60;4.32;;;16.70;99.90;;;;;;4896952;29;20096;-63
2023/10/07 10:27:17;;;;;;;8.05;4.80;;;16.80;99.90;;;;;;4896420;29;20044;-62
2023/10/07 10:30:06;;;;;;;11.55;5.00;;;16.80;99.90;;;;;;4895863;29;20390;-62
2023/10/07 10:32:36;;;;;;;8.32;5.22;;;16.80;99.90;;;;;;4891650;29;20049;-62
2023/10/07 10:35:11;;;;;;;8.57;4.93;;;16.70;99.90;;;;;;4889796;29;20044;-63
2023/10/07 10:37:38;;;;;;;10.65;4.88;;;16.60;99.90;;;;;;4897585;29;20051;-63
2023/10/07 10:40:14;;;;;;;8.48;4.90;;;16.70;99.90;;;;;;4895443;29;20059;-62
2023/10/07 10:42:43;;;;;;;7.53;4.35;;;16.70;99.90;;;;;;4895501;29;20056;-62
2023/10/07 10:45:26;;;;;;;9.23;4.45;;;16.70;99.90;;;;;;4895393;29;20542;-62
2023/10/07 10:47:54;;;;;;;6.82;4.50;;;16.90;99.90;;;;;;4878261;29;20068;-63
2023/10/07 10:50:28;;;;;;;9.57;4.47;;;17.10;99.90;;;;;;4895649;29;20475;-63
2023/10/07 10:52:58;;;;;;;9.23;4.55;;;17.40;99.90;;;;;;4895649;29;20072;-63
2023/10/07 10:55:33;;;;;;;10.35;4.80;;;17.60;99.90;;;;;;4895223;29;20036;-63
2023/10/07 10:58:00;;;;;;;11.77;4.35;;;17.60;99.90;;;;;;4895428;29;20438;-63
2023/10/07 11:00:28;;;;;;;7.88;4.35;;;17.80;99.90;;;;;;4896139;29;20426;-63
2023/10/07 11:02:55;;;;;;;7.45;3.85;;;17.90;99.90;;;;;;4895648;29;20049;-63
2023/10/07 11:05:25;;;;;;;9.55;4.60;;;17.90;99.90;;;;;;4896521;29;20080;-63
2023/10/07 11:07:54;;;;;;;8.85;4.65;;;18.00;99.90;;;;;;4896100;29;20056;-63
2023/10/07 11:10:22;;;;;;;12.70;4.82;;;17.90;99.90;;;;;;4895504;29;20105;-63
2023/10/07 11:12:56;;;;;;;9.20;4.13;;;18.00;99.90;;;;;;4896650;29;20036;-63
2023/10/07 11:15:27;;;;;;;11.07;5.15;;;18.10;99.90;;;;;;4900507;29;20072;-63
2023/10/07 11:18:11;;;;;;;8.65;4.07;;;18.10;99.90;;;;;;4899564;29;20128;-63
2023/10/07 11:20:43;;;;;;;7.03;3.65;;;18.10;99.90;;;;;;4898908;29;20064;-63
2023/10/07 11:23:15;;;;;;;9.38;5.00;;;18.20;99.90;;;;;;4892824;29;20524;-63
2023/10/07 11:25:42;;;;;;;8.77;3.90;;;18.40;99.90;;;;;;4899222;29;20055;-63
2023/10/07 11:28:09;;;;;;;8.75;4.25;;;18.40;99.90;;;;;;4899341;29;20498;-63
2023/10/07 11:30:47;;;;;;;6.38;3.83;;;18.60;99.90;;;;;;4898253;29;20043;-63
2023/10/07 11:33:16;;;;;;;6.75;3.90;;;18.70;99.90;;;;;;4897762;29;20056;-63
2023/10/07 11:35:55;;;;;;;7.32;4.47;;;18.80;99.90;;;;;;4897281;29;20054;-63
2023/10/07 11:38:25;;;;;;;13.52;4.47;;;18.90;99.90;;;;;;4908662;29;20037;-63
2023/10/07 11:40:52;;;;;;;6.95;3.90;;;18.80;99.90;;;;;;4899384;29;20076;-63
2023/10/07 11:43:19;;;;;;;9.65;4.15;;;19.00;99.90;;;;;;4899274;29;20041;-63
2023/10/07 11:45:47;;;;;;;8.80;3.78;;;19.10;99.90;;;;;;4899255;29;20040;-63
2023/10/07 11:48:14;;;;;;;8.07;4.53;;;19.20;99.90;;;;;;4898950;29;20083;-63
2023/10/07 11:50:41;;;;;;;;;;;19.20;99.90;;;;;;4899078;29;20044;-63
2023/10/07 11:53:08;;;;;;;9.75;4.60;;;19.20;99.90;;;;;;4897824;29;20346;-63
2023/10/07 11:55:35;;;;;;;9.52;3.88;;;19.30;99.90;;;;;;4899432;29;20040;-63
2023/10/07 11:58:07;;;;;;;9.05;4.30;;;19.40;99.90;;;;;;4898955;29;20043;-63
2023/10/07 12:00:35;;;;;;;8.85;3.97;;;19.40;99.90;;;;;;4896155;29;20053;-63
2023/10/07 12:03:06;;;;;;;8.43;4.25;;;19.40;99.90;;;;;;4899131;29;20421;-63
2023/10/07 12:05:38;;;;;;;10.77;4.00;;;19.40;99.90;;;;;;4898963;29;20115;-63
2023/10/07 12:08:05;;;;;;;7.90;4.20;;;19.50;99.90;;;;;;4899061;29;20068;-63
2023/10/07 12:10:39;;;;;;;9.98;4.13;;;19.50;99.90;;;;;;4898094;29;20075;-63
2023/10/07 12:13:14;;;;;;;8.45;4.10;;;19.60;99.90;;;;;;4899104;29;20047;-63
2023/10/07 12:15:42;;;;;;;7.40;3.90;;;19.80;99.90;;;;;;4899510;29;20517;-62
2023/10/07 12:18:29;;;;;;;9.50;4.75;;;19.90;99.90;;;;;;4899437;29;20051;-63
2023/10/07 12:21:00;;;;;;;6.72;4.00;;;19.90;99.90;;;;;;4898526;29;20051;-63
2023/10/07 12:23:27;;;;;;;7.50;3.72;;;20.10;99.90;;;;;;4899793;29;20046;-63
2023/10/07 12:25:54;;;;;;;;;;;20.10;99.90;;;;;;4897893;29;20509;-63
2023/10/07 12:28:21;;;;;;;8.32;3.95;;;20.20;99.90;;;;;;4903100;29;20547;-63
2023/10/07 12:30:49;;;;;;;7.57;4.40;;;20.30;99.90;;;;;;4903837;29;20048;-63
2023/10/07 12:33:16;;;;;;;7.38;4.00;;;20.30;99.90;;;;;;4896854;29;20037;-63
2023/10/07 12:36:01;;;;;;;7.55;4.05;;;20.30;99.90;;;;;;4899406;29;20052;-63
2023/10/07 12:38:27;;;;;;;7.15;3.97;;;20.30;99.90;;;;;;4904281;29;20126;-63
2023/10/07 12:40:54;;;;;;;9.00;4.20;;;20.40;99.90;;;;;;4898718;29;20124;-63
2023/10/07 12:43:22;;;;;;;8.02;4.00;;;20.50;99.90;;;;;;4896962;29;20100;-63
2023/10/07 12:45:49;;;;;;;8.13;4.05;;;20.50;99.90;;;;;;4898675;29;20119;-62
2023/10/07 12:48:18;;;;;;;10.10;3.72;;;20.60;99.90;;;;;;4897598;29;20052;-63
2023/10/07 12:50:45;;;;;;;7.05;3.70;;;20.60;99.90;;;;;;4898357;29;20439;-63
2023/10/07 12:53:16;;;;;;;8.07;4.10;;;20.80;99.90;;;;;;4897338;29;20041;-63
2023/10/07 12:55:43;;;;;;;6.53;3.78;;;20.90;99.90;;;;;;4898608;29;20127;-63
2023/10/07 12:58:15;;;;;;;9.85;4.18;;;20.90;99.90;;;;;;4898102;29;20127;-63
2023/10/07 13:00:42;;;;;;;9.10;4.00;;;20.80;99.90;;;;;;4894847;29;20451;-63
2023/10/07 13:03:09;;;;;;;;;;;20.70;99.90;;;;;;4898316;29;21675;-63
2023/10/07 13:05:37;;;;;;;6.38;3.55;;;20.70;99.90;;;;;;4898029;29;20014;-63
2023/10/07 13:08:12;;;;;;;6.22;3.67;;;20.70;99.90;;;;;;4898309;29;20421;-63
2023/10/07 13:10:40;;;;;;;8.57;4.07;;;20.70;99.90;;;;;;4897823;29;20083;-63
2023/10/07 13:13:07;;;;;;;6.13;3.17;;;20.60;99.90;;;;;;4904261;29;20383;-63
2023/10/07 13:15:35;;;;;;;;;;;20.60;99.90;;;;;;4909315;29;20611;-63
2023/10/07 13:18:02;;;;;;;5.78;3.65;;;20.70;99.90;;;;;;4903687;29;19958;-63
2023/10/07 13:20:33;;;;;;;9.35;4.20;;;20.80;99.90;;;;;;4905138;29;20052;-63
2023/10/07 13:23:01;;;;;;;8.30;3.97;;;20.80;99.90;;;;;;4901819;29;20052;-62
2023/10/07 13:25:28;;;;;;;9.63;4.50;;;20.80;99.90;;;;;;4891686;29;20149;-63
2023/10/07 13:27:56;;;;;;;7.68;3.50;;;20.80;99.90;;;;;;4903225;29;20100;-62
2023/10/07 13:30:24;;;;;;;7.68;4.32;;;20.70;99.90;;;;;;4903837;29;20092;-63
2023/10/07 13:32:55;;;;;;;9.38;4.28;;;20.60;99.90;;;;;;4903128;29;20064;-62
2023/10/07 13:35:24;;;;;;;8.63;3.95;;;20.50;99.90;;;;;;4892149;29;20509;-63
2023/10/07 13:37:52;;;;;;;7.32;3.90;;;20.40;99.90;;;;;;4897027;29;20104;-62
2023/10/07 13:40:20;;;;;;;9.82;4.13;;;20.20;99.90;;;;;;4895137;29;20040;-63
2023/10/07 13:42:49;;;;;;;9.55;4.22;;;20.10;99.90;;;;;;4896329;29;20507;-63
2023/10/07 13:45:21;;;;;;;7.35;3.47;;;19.90;99.90;;;;;;4893846;29;20402;-62
2023/10/07 13:47:49;;;;;;;5.68;3.33;;;19.60;99.90;;;;;;4897061;29;20104;-63
2023/10/07 13:50:20;;;;;;;8.40;3.30;;;19.50;99.90;;;;;;4893697;29;20050;-63
2023/10/07 13:52:53;;;;;;;9.27;3.80;;;19.40;99.90;;;;;;4891877;29;20124;-63